createdAt,value
2018-06-16T00:00:31.648Z,942.03
2018-06-16T00:01:39.786Z,942.06
2018-06-16T00:02:47.759Z,942.05
2018-06-16T00:03:55.864Z,942.00
2018-06-16T00:05:03.915Z,942.00
2018-06-16T00:06:11.964Z,942.02
2018-06-16T00:07:20.118Z,941.98
2018-06-16T00:08:28.092Z,941.94
2018-06-16T00:09:36.144Z,941.99
2018-06-16T00:10:44.353Z,942.00
2018-06-16T00:11:52.258Z,941.99
2018-06-16T00:13:00.447Z,941.95
2018-06-16T00:14:08.398Z,941.96
2018-06-16T00:15:16.556Z,941.99
2018-06-16T00:16:24.515Z,941.98
2018-06-16T00:17:32.573Z,941.95
2018-06-16T00:18:40.745Z,941.95
2018-06-16T00:19:48.707Z,941.93
2018-06-16T00:20:56.768Z,941.94
2018-06-16T00:22:04.825Z,941.91
2018-06-16T00:23:12.896Z,941.88
2018-06-16T00:24:21.067Z,941.87
2018-06-16T00:25:29.012Z,941.85
2018-06-16T00:26:37.093Z,941.85
2018-06-16T00:27:45.147Z,941.85
2018-06-16T00:28:53.226Z,941.81
2018-06-16T00:30:01.373Z,941.81
2018-06-16T00:31:09.419Z,941.82
2018-06-16T00:32:17.397Z,941.79
2018-06-16T00:33:25.470Z,941.81
2018-06-16T00:34:33.626Z,941.78
2018-06-16T00:35:41.677Z,941.77
2018-06-16T00:36:49.647Z,941.80
2018-06-16T00:37:57.715Z,941.79
2018-06-16T00:39:05.785Z,941.79
2018-06-16T00:40:13.847Z,941.77
2018-06-16T00:41:22.109Z,941.75
2018-06-16T00:42:30.226Z,941.76
2018-06-16T00:43:38.032Z,941.73
2018-06-16T00:44:46.302Z,941.78
2018-06-16T00:45:54.370Z,941.80
2018-06-16T00:47:02.547Z,941.72
2018-06-16T00:48:10.485Z,941.77
2018-06-16T00:49:18.551Z,941.75
2018-06-16T00:50:26.608Z,941.78
2018-06-16T00:51:34.946Z,941.77
2018-06-16T00:52:42.935Z,941.74
2018-06-16T00:53:51.075Z,941.74
2018-06-16T00:54:58.872Z,941.72
2018-06-16T00:56:06.934Z,941.73
2018-06-16T00:57:15.002Z,941.72
2018-06-16T00:58:23.153Z,941.70
2018-06-16T00:59:31.119Z,941.73
2018-06-16T01:00:39.175Z,941.68
2018-06-16T01:01:48.753Z,941.76
2018-06-16T01:02:55.410Z,941.74
2018-06-16T01:04:03.470Z,941.78
2018-06-16T01:05:11.449Z,941.73
2018-06-16T01:06:19.468Z,941.72
2018-06-16T01:07:27.855Z,941.76
2018-06-16T01:08:35.639Z,941.69
2018-06-16T01:09:43.789Z,941.70
2018-06-16T01:10:51.762Z,941.71
2018-06-16T01:11:59.803Z,941.69
2018-06-16T01:13:07.886Z,941.69
2018-06-16T01:14:15.997Z,941.71
2018-06-16T01:15:24.353Z,941.69
2018-06-16T01:16:32.070Z,941.70
2018-06-16T01:17:40.146Z,941.66
2018-06-16T01:18:48.304Z,941.62
2018-06-16T01:19:56.280Z,941.67
2018-06-16T01:21:04.429Z,941.63
2018-06-16T01:22:12.382Z,941.61
2018-06-16T01:23:20.453Z,941.59
2018-06-16T01:24:28.515Z,941.54
2018-06-16T01:25:36.579Z,941.56
2018-06-16T01:26:44.728Z,941.57
2018-06-16T01:27:52.713Z,941.60
2018-06-16T01:29:00.770Z,941.55
2018-06-16T01:30:08.841Z,941.57
2018-06-16T01:31:16.895Z,941.57
2018-06-16T01:32:25.062Z,941.55
2018-06-16T01:33:33.035Z,941.59
2018-06-16T01:34:41.196Z,941.58
2018-06-16T01:35:49.139Z,941.59
2018-06-16T01:36:57.218Z,941.53
2018-06-16T01:38:05.380Z,941.55
2018-06-16T01:39:13.375Z,941.54
2018-06-16T01:40:21.416Z,941.57
2018-06-16T01:41:29.459Z,941.56
2018-06-16T01:42:37.557Z,941.54
2018-06-16T01:43:45.718Z,941.54
2018-06-16T01:44:53.674Z,941.53
2018-06-16T01:46:01.738Z,941.54
2018-06-16T01:47:09.779Z,941.55
2018-06-16T01:48:17.862Z,941.57
2018-06-16T01:49:26.170Z,941.55
2018-06-16T01:50:34.099Z,941.58
2018-06-16T01:51:42.324Z,941.57
2018-06-16T01:52:50.167Z,941.56
2018-06-16T01:53:58.274Z,941.61
2018-06-16T01:55:06.489Z,941.55
2018-06-16T01:56:14.331Z,941.58
2018-06-16T01:57:22.421Z,941.53
2018-06-16T01:58:30.456Z,941.54
2018-06-16T01:59:38.516Z,941.54
2018-06-16T02:00:46.934Z,941.52
2018-06-16T02:01:54.639Z,941.51
2018-06-16T02:03:02.723Z,941.51
2018-06-16T02:04:10.912Z,941.50
2018-06-16T02:05:18.822Z,941.53
2018-06-16T02:06:27.136Z,941.54
2018-06-16T02:07:34.983Z,941.51
2018-06-16T02:08:43.052Z,941.56
2018-06-16T02:09:51.104Z,941.54
2018-06-16T02:10:59.156Z,941.53
2018-06-16T02:12:07.326Z,941.56
2018-06-16T02:13:15.285Z,941.53
2018-06-16T02:14:23.356Z,941.54
2018-06-16T02:15:31.434Z,941.57
2018-06-16T02:16:39.477Z,941.52
2018-06-16T02:17:47.776Z,941.53
2018-06-16T02:18:55.642Z,941.52
2018-06-16T02:20:03.695Z,941.52
2018-06-16T02:21:11.782Z,941.49
2018-06-16T02:22:19.907Z,941.49
2018-06-16T02:23:28.113Z,941.46
2018-06-16T02:24:35.949Z,941.44
2018-06-16T02:25:44.014Z,941.41
2018-06-16T02:26:52.079Z,941.43
2018-06-16T02:28:00.157Z,941.43
2018-06-16T02:29:08.306Z,941.42
2018-06-16T02:30:16.297Z,941.43
2018-06-16T02:31:24.346Z,941.42
2018-06-16T02:32:32.445Z,941.42
2018-06-16T02:33:40.488Z,941.40
2018-06-16T02:34:48.764Z,941.41
2018-06-16T02:35:56.886Z,941.41
2018-06-16T02:37:04.659Z,941.36
2018-06-16T02:38:12.826Z,941.40
2018-06-16T02:39:20.803Z,941.35
2018-06-16T02:40:29.025Z,941.31
2018-06-16T02:41:36.929Z,941.35
2018-06-16T02:42:44.981Z,941.31
2018-06-16T02:43:53.056Z,941.34
2018-06-16T02:45:01.130Z,941.32
2018-06-16T02:46:09.254Z,941.31
2018-06-16T02:47:17.263Z,941.28
2018-06-16T02:48:25.304Z,941.27
2018-06-16T02:49:33.382Z,941.30
2018-06-16T02:50:41.465Z,941.25
2018-06-16T02:51:49.717Z,941.27
2018-06-16T02:52:57.575Z,941.24
2018-06-16T02:54:06.022Z,941.25
2018-06-16T02:55:13.714Z,941.24
2018-06-16T02:56:21.758Z,941.25
2018-06-16T02:57:29.916Z,941.25
2018-06-16T02:58:37.900Z,941.28
2018-06-16T02:59:45.963Z,941.31
2018-06-16T03:00:54.025Z,941.32
2018-06-16T03:02:02.092Z,941.29
2018-06-16T03:03:10.309Z,941.29
2018-06-16T03:04:18.218Z,941.32
2018-06-16T03:05:26.284Z,941.32
2018-06-16T03:06:34.355Z,941.30
2018-06-16T03:07:42.395Z,941.32
2018-06-16T03:08:50.783Z,941.34
2018-06-16T03:09:58.861Z,941.31
2018-06-16T03:11:06.816Z,941.30
2018-06-16T03:12:14.896Z,941.32
2018-06-16T03:13:22.955Z,941.30
2018-06-16T03:14:31.101Z,941.33
2018-06-16T03:15:39.055Z,941.35
2018-06-16T03:16:47.136Z,941.40
2018-06-16T03:17:55.227Z,941.34
2018-06-16T03:19:03.271Z,941.37
2018-06-16T03:20:11.428Z,941.39
2018-06-16T03:21:19.382Z,941.39
2018-06-16T03:22:27.498Z,941.39
2018-06-16T03:23:35.618Z,941.40
2018-06-16T03:24:43.594Z,941.41
2018-06-16T03:25:51.880Z,941.40
2018-06-16T03:27:01.200Z,941.38
2018-06-16T03:28:07.791Z,941.38
2018-06-16T03:29:15.889Z,941.37
2018-06-16T03:30:23.933Z,941.36
2018-06-16T03:31:32.078Z,941.37
2018-06-16T03:32:40.048Z,941.36
2018-06-16T03:33:48.109Z,941.37
2018-06-16T03:34:56.165Z,941.37
2018-06-16T03:36:04.249Z,941.37
2018-06-16T03:37:12.396Z,941.35
2018-06-16T03:38:20.374Z,941.35
2018-06-16T03:39:28.438Z,941.39
2018-06-16T03:40:36.519Z,941.39
2018-06-16T03:41:44.660Z,941.40
2018-06-16T03:42:52.865Z,941.39
2018-06-16T03:44:00.685Z,941.41
2018-06-16T03:45:08.760Z,941.44
2018-06-16T03:46:16.890Z,941.46
2018-06-16T03:56:20.341Z,941.50
2018-06-16T03:57:26.962Z,941.52
2018-06-16T03:58:35.036Z,941.53
2018-06-16T03:59:43.112Z,941.54
2018-06-16T04:00:52.772Z,941.54
2018-06-16T04:02:00.085Z,941.54
2018-06-16T04:03:07.595Z,941.52
2018-06-16T04:04:15.366Z,941.52
2018-06-16T04:05:23.455Z,941.49
2018-06-16T04:06:31.482Z,941.55
2018-06-16T04:07:39.582Z,941.54
2018-06-16T04:08:47.608Z,941.50
2018-06-16T04:09:55.693Z,941.50
2018-06-16T04:11:03.756Z,941.53
2018-06-16T04:12:11.897Z,941.51
2018-06-16T04:13:19.888Z,941.48
2018-06-16T04:14:28.241Z,941.48
2018-06-16T04:15:36.007Z,941.47
2018-06-16T04:16:44.051Z,941.48
2018-06-16T04:17:52.177Z,941.48
2018-06-16T04:19:00.179Z,941.48
2018-06-16T04:20:08.253Z,941.50
2018-06-16T04:21:16.314Z,941.48
2018-06-16T04:22:24.484Z,941.47
2018-06-16T04:23:32.464Z,941.46
2018-06-16T04:24:40.502Z,941.45
2018-06-16T04:25:48.641Z,941.50
2018-06-16T04:26:56.764Z,941.45
2018-06-16T04:28:04.832Z,941.48
2018-06-16T04:29:12.876Z,941.46
2018-06-16T04:30:20.836Z,941.45
2018-06-16T04:31:29.102Z,941.45
2018-06-16T04:32:36.962Z,941.46
2018-06-16T04:33:45.131Z,941.48
2018-06-16T04:34:53.132Z,941.46
2018-06-16T04:36:01.154Z,941.46
2018-06-16T04:37:09.215Z,941.44
2018-06-16T04:38:17.279Z,941.43
2018-06-16T04:39:25.445Z,941.39
2018-06-16T04:40:33.507Z,941.40
2018-06-16T04:41:41.484Z,941.41
2018-06-16T04:42:49.520Z,941.40
2018-06-16T04:43:57.817Z,941.40
2018-06-16T04:45:05.969Z,941.42
2018-06-16T04:46:13.917Z,941.41
2018-06-16T04:48:33.344Z,941.41
2018-06-16T04:49:40.792Z,941.42
2018-06-16T04:50:48.941Z,941.41
2018-06-16T04:51:56.890Z,941.43
2018-06-16T04:53:04.925Z,941.47
2018-06-16T04:54:13.044Z,941.40
2018-06-16T04:55:21.060Z,941.43
2018-06-16T04:56:29.242Z,941.42
2018-06-16T04:57:37.792Z,941.45
2018-06-16T04:58:45.259Z,941.44
2018-06-16T04:59:53.320Z,941.40
2018-06-16T05:01:01.377Z,941.41
2018-06-16T05:02:09.550Z,941.40
2018-06-16T05:03:17.513Z,941.42
2018-06-16T05:04:25.584Z,941.44
2018-06-16T05:05:33.654Z,941.48
2018-06-16T05:06:41.714Z,941.45
2018-06-16T05:07:50.480Z,941.41
2018-06-16T05:08:58.439Z,941.45
2018-06-16T05:10:06.504Z,941.43
2018-06-16T05:11:14.667Z,941.43
2018-06-16T05:12:22.734Z,941.40
2018-06-16T05:13:30.711Z,941.42
2018-06-16T05:14:39.002Z,941.46
2018-06-16T05:15:46.877Z,941.46
2018-06-16T05:16:54.900Z,941.38
2018-06-16T05:18:03.074Z,941.39
2018-06-16T05:19:11.049Z,941.39
2018-06-16T05:20:19.099Z,941.42
2018-06-16T05:21:27.484Z,941.40
2018-06-16T05:22:35.269Z,941.37
2018-06-16T05:23:43.412Z,941.41
2018-06-16T05:24:51.411Z,941.39
2018-06-16T05:27:12.550Z,941.39
2018-06-16T05:28:20.598Z,941.40
2018-06-16T05:29:28.727Z,941.41
2018-06-16T05:32:55.781Z,941.37
2018-06-16T05:34:01.065Z,941.36
2018-06-16T05:35:09.112Z,941.37
2018-06-16T05:36:18.114Z,941.37
2018-06-16T05:37:26.407Z,941.37
2018-06-16T05:38:34.295Z,941.38
2018-06-16T05:39:42.286Z,941.41
2018-06-16T05:40:50.830Z,941.41
2018-06-16T05:41:58.392Z,941.39
2018-06-16T05:43:06.453Z,941.39
2018-06-16T05:44:14.518Z,941.44
2018-06-16T05:45:22.568Z,941.45
2018-06-16T05:46:31.009Z,941.43
2018-06-16T05:47:38.731Z,941.44
2018-06-16T05:48:46.787Z,941.45
2018-06-16T05:49:54.859Z,941.48
2018-06-16T05:51:02.928Z,941.48
2018-06-16T05:52:11.027Z,941.48
2018-06-16T05:53:19.044Z,941.51
2018-06-16T05:54:27.105Z,941.53
2018-06-16T05:55:35.428Z,941.57
2018-06-16T05:56:43.252Z,941.60
2018-06-16T05:57:51.480Z,941.62
2018-06-16T05:58:59.388Z,941.65
2018-06-16T06:00:07.424Z,941.62
2018-06-16T06:01:15.558Z,941.65
2018-06-16T06:02:23.576Z,941.66
2018-06-16T06:03:31.734Z,941.67
2018-06-16T06:04:39.746Z,941.67
2018-06-16T06:05:47.755Z,941.67
2018-06-16T06:06:55.856Z,941.68
2018-06-16T06:08:03.908Z,941.64
2018-06-16T06:09:12.092Z,941.64
2018-06-16T06:10:20.089Z,941.71
2018-06-16T06:11:28.119Z,941.71
2018-06-16T06:12:36.374Z,941.70
2018-06-16T06:13:44.450Z,941.69
2018-06-16T06:14:52.628Z,941.72
2018-06-16T06:16:00.824Z,941.73
2018-06-16T06:17:08.704Z,941.78
2018-06-16T06:18:16.720Z,941.80
2018-06-16T06:19:24.786Z,941.77
2018-06-16T06:20:32.889Z,941.78
2018-06-16T06:21:40.917Z,941.80
2018-06-16T06:22:48.994Z,941.80
2018-06-16T06:23:57.040Z,941.85
2018-06-16T06:25:05.119Z,941.83
2018-06-16T06:26:13.309Z,941.86
2018-06-16T06:27:21.252Z,941.90
2018-06-16T06:28:29.307Z,941.88
2018-06-16T06:29:37.376Z,941.88
2018-06-16T06:30:45.449Z,941.91
2018-06-16T06:31:53.585Z,941.93
2018-06-16T06:33:01.673Z,941.92
2018-06-16T06:34:09.647Z,941.92
2018-06-16T06:35:17.954Z,941.93
2018-06-16T06:36:25.986Z,941.91
2018-06-16T06:37:34.128Z,941.92
2018-06-16T06:38:42.337Z,941.95
2018-06-16T06:39:50.410Z,941.92
2018-06-16T06:40:58.462Z,941.94
2018-06-16T06:42:07.890Z,941.91
2018-06-16T06:43:15.838Z,941.94
2018-06-16T06:44:23.901Z,941.90
2018-06-16T06:45:31.977Z,941.93
2018-06-16T06:46:40.033Z,941.94
2018-06-16T06:47:48.226Z,941.95
2018-06-16T06:48:56.179Z,941.98
2018-06-16T06:50:04.229Z,941.99
2018-06-16T06:51:12.299Z,942.04
2018-06-16T06:52:21.894Z,942.00
2018-06-16T06:53:28.446Z,942.03
2018-06-16T06:54:36.515Z,942.01
2018-06-16T06:55:44.876Z,941.99
2018-06-16T06:58:03.454Z,942.09
2018-06-16T06:59:12.081Z,942.10
2018-06-16T07:00:19.479Z,942.11
2018-06-16T07:01:27.546Z,942.07
2018-06-16T07:02:35.615Z,942.21
2018-06-16T07:03:44.328Z,942.56
2018-06-16T07:06:04.054Z,942.19
2018-06-16T07:07:12.171Z,942.07
2018-06-16T07:08:20.181Z,942.12
2018-06-16T07:09:28.366Z,942.25
2018-06-16T07:10:36.368Z,942.59
2018-06-16T07:11:44.393Z,942.75
2018-06-16T07:12:52.473Z,942.72
2018-06-16T07:14:00.524Z,942.67
2018-06-16T07:15:08.736Z,942.45
2018-06-16T07:16:16.690Z,942.64
2018-06-16T07:17:24.737Z,942.88
2018-06-16T07:18:32.814Z,942.84
2018-06-16T07:19:40.913Z,942.66
2018-06-16T07:20:49.004Z,942.67
2018-06-16T07:21:57.072Z,942.76
2018-06-16T07:23:05.319Z,942.82
2018-06-16T07:24:13.382Z,943.04
2018-06-16T07:26:33.423Z,942.51
2018-06-16T07:27:41.425Z,942.90
2018-06-16T07:31:19.395Z,943.18
2018-06-16T07:32:27.482Z,943.24
2018-06-16T07:33:35.904Z,943.31
2018-06-16T07:34:43.919Z,943.37
2018-06-16T07:35:51.700Z,943.41
2018-06-16T07:36:59.749Z,943.40
2018-06-16T07:38:07.815Z,943.47
2018-06-16T07:39:16.007Z,943.47
2018-06-16T07:40:23.980Z,943.49
2018-06-16T07:41:32.101Z,943.53
2018-06-16T07:42:40.488Z,943.55
2018-06-16T07:44:59.769Z,943.65
2018-06-16T07:46:08.038Z,943.68
2018-06-16T07:47:15.880Z,943.70
2018-06-16T07:48:24.081Z,943.86
2018-06-16T07:49:32.055Z,944.03
2018-06-16T07:50:40.249Z,944.13
2018-06-16T07:51:48.240Z,944.19
2018-06-16T07:52:56.407Z,944.26
2018-06-16T07:54:04.470Z,944.45
2018-06-16T07:55:12.453Z,944.65
2018-06-16T07:56:20.577Z,944.88
2018-06-16T07:57:28.600Z,944.99
2018-06-16T07:58:36.698Z,945.21
2018-06-16T07:59:44.886Z,945.37
2018-06-16T08:00:52.851Z,945.47
2018-06-16T08:02:01.275Z,945.69
2018-06-16T08:03:09.027Z,945.84
2018-06-16T08:04:17.126Z,946.09
2018-06-16T08:05:25.301Z,946.40
2018-06-16T08:06:33.860Z,946.77
2018-06-16T08:07:41.374Z,946.94
2018-06-16T08:08:49.501Z,947.06
2018-06-16T08:09:57.502Z,947.30
2018-06-16T08:11:05.701Z,946.36
2018-06-16T08:12:13.742Z,945.12
2018-06-16T08:13:21.767Z,947.18
2018-06-16T08:14:29.848Z,947.07
2018-06-16T08:15:37.918Z,947.08
2018-06-16T08:16:46.131Z,946.62
2018-06-16T08:17:54.101Z,947.17
2018-06-16T08:19:02.189Z,947.90
2018-06-16T08:20:10.527Z,948.03
2018-06-16T08:21:18.344Z,948.16
2018-06-16T08:22:26.491Z,948.12
2018-06-16T08:23:34.531Z,948.14
2018-06-16T08:24:42.612Z,948.10
2018-06-16T08:25:50.701Z,947.88
2018-06-16T08:26:59.022Z,947.68
2018-06-16T08:28:06.941Z,947.63
2018-06-16T08:29:14.937Z,947.70
2018-06-16T08:30:23.018Z,947.82
2018-06-16T08:31:31.100Z,947.96
2018-06-16T08:32:39.252Z,948.10
2018-06-16T08:33:47.261Z,948.08
2018-06-16T08:34:55.357Z,947.85
2018-06-16T08:36:03.447Z,947.43
2018-06-16T08:37:11.628Z,947.11
2018-06-16T08:38:19.606Z,946.89
2018-06-16T08:39:27.677Z,946.92
2018-06-16T08:40:35.780Z,947.10
2018-06-16T08:41:43.866Z,947.03
2018-06-16T08:42:52.065Z,946.89
2018-06-16T08:44:00.089Z,946.87
2018-06-16T08:45:08.127Z,947.02
2018-06-16T08:46:16.446Z,947.13
2018-06-16T08:47:24.410Z,947.07
2018-06-16T08:48:33.378Z,947.02
2018-06-16T08:49:40.460Z,947.06
2018-06-16T08:50:48.576Z,947.03
2018-06-16T08:51:56.655Z,946.85
2018-06-16T08:53:04.715Z,946.64
2018-06-16T08:54:12.908Z,946.75
2018-06-16T08:55:20.916Z,946.79
2018-06-16T08:56:28.984Z,946.66
2018-06-16T08:57:37.046Z,946.57
2018-06-16T08:58:45.146Z,946.33
2018-06-16T08:59:53.354Z,945.92
2018-06-16T09:01:01.323Z,945.69
2018-06-16T09:02:09.619Z,945.71
2018-06-16T09:03:17.796Z,945.86
2018-06-16T09:04:25.780Z,945.88
2018-06-16T09:05:33.989Z,945.62
2018-06-16T09:06:41.956Z,945.54
2018-06-16T09:07:50.053Z,945.42
2018-06-16T09:08:58.118Z,945.48
2018-06-16T09:10:06.213Z,945.40
2018-06-16T09:11:14.418Z,945.48
2018-06-16T09:12:22.417Z,945.45
2018-06-16T09:13:30.477Z,945.43
2018-06-16T09:14:38.646Z,945.53
2018-06-16T09:15:46.639Z,945.47
2018-06-16T09:16:54.834Z,945.51
2018-06-16T09:18:02.806Z,945.57
2018-06-16T09:19:10.991Z,945.62
2018-06-16T09:20:18.988Z,945.66
2018-06-16T09:21:27.066Z,945.76
2018-06-16T09:22:35.212Z,945.72
2018-06-16T09:23:43.232Z,945.79
2018-06-16T09:24:51.309Z,945.95
2018-06-16T09:25:59.665Z,946.04
2018-06-16T09:27:07.776Z,945.94
2018-06-16T09:28:15.560Z,944.17
2018-06-16T09:29:23.653Z,942.55
2018-06-16T09:30:31.726Z,942.49
2018-06-16T09:31:39.856Z,942.53
2018-06-16T09:32:47.929Z,942.46
2018-06-16T09:33:55.976Z,942.46
2018-06-16T09:35:04.170Z,942.51
2018-06-16T09:36:12.195Z,942.51
2018-06-16T09:37:20.337Z,942.42
2018-06-16T09:38:28.298Z,942.44
2018-06-16T09:39:36.387Z,942.46
2018-06-16T09:40:44.458Z,942.44
2018-06-16T09:41:52.545Z,942.45
2018-06-16T09:43:00.748Z,942.50
2018-06-16T09:44:08.700Z,942.45
2018-06-16T09:45:17.020Z,942.48
2018-06-16T09:46:24.859Z,942.45
2018-06-16T09:47:33.141Z,942.42
2018-06-16T09:48:41.360Z,942.42
2018-06-16T09:49:49.286Z,942.44
2018-06-16T09:50:57.416Z,942.40
2018-06-16T09:52:05.557Z,942.43
2018-06-16T09:53:13.505Z,942.44
2018-06-16T09:54:21.735Z,942.39
2018-06-16T09:55:29.680Z,942.37
2018-06-16T09:56:37.720Z,942.41
2018-06-16T09:57:45.826Z,942.38
2018-06-16T09:58:53.892Z,942.44
2018-06-16T10:00:02.091Z,942.42
2018-06-16T10:01:10.033Z,942.39
2018-06-16T10:02:18.115Z,942.42
2018-06-16T10:03:26.240Z,942.37
2018-06-16T10:04:34.267Z,942.38
2018-06-16T10:05:42.452Z,942.45
2018-06-16T10:06:50.425Z,942.40
2018-06-16T10:07:58.754Z,942.42
2018-06-16T10:09:06.781Z,942.45
2018-06-16T10:10:14.844Z,942.47
2018-06-16T10:11:23.035Z,942.44
2018-06-16T10:12:31.044Z,942.49
2018-06-16T10:13:39.065Z,942.44
2018-06-16T10:14:47.128Z,942.41
2018-06-16T10:15:55.276Z,942.46
2018-06-16T10:17:03.414Z,942.43
2018-06-16T10:18:11.383Z,942.40
2018-06-16T10:19:19.452Z,942.45
2018-06-16T10:20:27.500Z,942.41
2018-06-16T10:21:35.595Z,942.42
2018-06-16T10:22:43.714Z,942.38
2018-06-16T10:23:52.010Z,942.40
2018-06-16T10:24:59.808Z,942.45
2018-06-16T10:26:08.216Z,942.47
2018-06-16T10:27:16.275Z,942.46
2018-06-16T10:28:24.492Z,942.42
2018-06-16T10:29:32.498Z,942.42
2018-06-16T10:30:40.672Z,942.38
2018-06-16T10:31:48.660Z,942.39
2018-06-16T10:32:56.836Z,942.39
2018-06-16T10:34:04.804Z,942.40
2018-06-16T10:35:12.886Z,942.42
2018-06-16T10:36:20.974Z,942.40
2018-06-16T10:37:29.028Z,942.42
2018-06-16T10:38:38.219Z,942.36
2018-06-16T10:39:45.568Z,942.34
2018-06-16T10:40:53.229Z,942.37
2018-06-16T10:42:01.309Z,942.33
2018-06-16T10:43:09.402Z,942.29
2018-06-16T10:44:17.742Z,942.32
2018-06-16T10:45:25.544Z,942.28
2018-06-16T10:46:33.641Z,942.27
2018-06-16T10:47:41.688Z,942.25
2018-06-16T10:48:49.772Z,942.21
2018-06-16T10:49:57.931Z,942.22
2018-06-16T10:51:05.903Z,942.25
2018-06-16T10:52:13.971Z,942.27
2018-06-16T10:53:22.050Z,942.27
2018-06-16T10:54:30.132Z,942.22
2018-06-16T10:55:38.298Z,942.20
2018-06-16T10:56:46.280Z,942.19
2018-06-16T10:57:54.382Z,942.19
2018-06-16T10:59:02.501Z,942.14
2018-06-16T11:00:10.547Z,942.15
2018-06-16T11:01:18.682Z,942.15
2018-06-16T11:02:26.650Z,942.16
2018-06-16T11:03:34.718Z,942.17
2018-06-16T11:04:42.786Z,942.15
2018-06-16T11:05:50.902Z,942.12
2018-06-16T11:06:59.017Z,942.11
2018-06-16T11:08:07.009Z,942.09
2018-06-16T11:09:15.130Z,942.07
2018-06-16T11:10:23.147Z,942.03
2018-06-16T11:11:31.230Z,942.01
2018-06-16T11:12:39.756Z,942.03
2018-06-16T11:13:47.753Z,942.03
2018-06-16T11:14:55.859Z,942.02
2018-06-16T11:16:04.018Z,942.03
2018-06-16T11:17:12.112Z,942.02
2018-06-16T11:18:20.075Z,942.03
2018-06-16T11:19:28.194Z,942.08
2018-06-16T11:20:36.222Z,942.06
2018-06-16T11:21:44.301Z,942.07
2018-06-16T11:22:52.469Z,942.03
2018-06-16T11:24:00.544Z,942.01
2018-06-16T11:25:08.509Z,941.98
2018-06-16T11:26:16.575Z,941.97
2018-06-16T11:27:24.666Z,941.92
2018-06-16T11:28:32.835Z,941.97
2018-06-16T11:29:40.797Z,941.93
2018-06-16T11:30:48.873Z,941.95
2018-06-16T11:31:56.940Z,941.96
2018-06-16T11:33:05.266Z,941.95
2018-06-16T11:34:13.222Z,941.97
2018-06-16T11:35:21.219Z,941.95
2018-06-16T11:36:29.249Z,941.95
2018-06-16T11:37:37.296Z,941.93
2018-06-16T11:38:45.398Z,941.94
2018-06-16T11:39:53.605Z,941.92
2018-06-16T11:41:01.546Z,941.89
2018-06-16T11:42:09.658Z,941.88
2018-06-16T11:43:17.863Z,941.86
2018-06-16T11:44:25.948Z,941.86
2018-06-16T11:45:34.146Z,941.89
2018-06-16T11:46:42.119Z,941.86
2018-06-16T11:47:50.179Z,941.82
2018-06-16T11:48:58.289Z,941.78
2018-06-16T11:50:06.328Z,941.75
2018-06-16T11:51:14.502Z,941.75
2018-06-16T11:52:22.473Z,941.73
2018-06-16T11:53:30.549Z,941.74
2018-06-16T11:54:38.609Z,941.73
2018-06-16T11:55:46.696Z,941.71
2018-06-16T11:56:54.881Z,941.66
2018-06-16T11:58:02.886Z,941.68
2018-06-16T11:59:10.910Z,941.61
2018-06-16T12:00:18.975Z,941.59
2018-06-16T12:01:27.079Z,941.60
2018-06-16T12:02:35.184Z,941.58
2018-06-16T12:03:43.203Z,941.59
2018-06-16T12:04:51.285Z,941.58
2018-06-16T12:05:59.716Z,941.54
2018-06-16T12:07:07.517Z,941.53
2018-06-16T12:08:15.546Z,941.51
2018-06-16T12:09:23.570Z,941.54
2018-06-16T12:10:31.640Z,941.51
2018-06-16T12:11:39.710Z,941.48
2018-06-16T12:12:47.810Z,941.47
2018-06-16T12:13:55.858Z,941.51
2018-06-16T12:15:03.939Z,941.46
2018-06-16T12:16:11.995Z,941.51
2018-06-16T12:17:20.065Z,941.51
2018-06-16T12:18:28.245Z,941.46
2018-06-16T12:19:36.228Z,941.44
2018-06-16T12:20:44.304Z,941.45
2018-06-16T12:21:52.365Z,941.41
2018-06-16T12:23:00.438Z,941.44
2018-06-16T12:24:08.567Z,941.45
2018-06-16T12:25:16.588Z,941.46
2018-06-16T12:26:24.700Z,941.44
2018-06-16T12:27:32.787Z,941.50
2018-06-16T12:28:40.795Z,941.49
2018-06-16T12:29:49.071Z,941.44
2018-06-16T12:30:56.940Z,941.40
2018-06-16T12:32:05.011Z,941.41
2018-06-16T12:33:13.091Z,941.44
2018-06-16T12:34:21.217Z,941.43
2018-06-16T12:35:29.352Z,941.42
2018-06-16T12:36:37.284Z,941.43
2018-06-16T12:37:45.497Z,941.39
2018-06-16T12:38:53.456Z,941.41
2018-06-16T12:40:01.737Z,941.41
2018-06-16T12:41:09.943Z,941.46
2018-06-16T12:42:17.868Z,941.46
2018-06-16T12:43:25.955Z,941.43
2018-06-16T12:44:34.096Z,941.47
2018-06-16T12:45:42.102Z,941.42
2018-06-16T12:46:50.289Z,941.40
2018-06-16T12:47:58.248Z,941.40
2018-06-16T12:49:06.304Z,941.41
2018-06-16T12:50:14.380Z,941.41
2018-06-16T12:51:22.807Z,941.41
2018-06-16T12:52:30.661Z,941.42
2018-06-16T12:53:38.712Z,941.43
2018-06-16T12:54:46.689Z,941.43
2018-06-16T12:55:55.109Z,941.45
2018-06-16T12:57:02.825Z,941.41
2018-06-16T12:58:10.926Z,941.36
2018-06-16T12:59:18.996Z,941.37
2018-06-16T13:00:27.037Z,941.37
2018-06-16T13:01:35.114Z,941.39
2018-06-16T13:02:43.231Z,941.41
2018-06-16T13:03:51.297Z,941.39
2018-06-16T13:04:59.338Z,941.37
2018-06-16T13:06:07.388Z,941.37
2018-06-16T13:07:15.542Z,941.35
2018-06-16T13:08:23.546Z,941.39
2018-06-16T13:09:31.684Z,941.41
2018-06-16T13:10:39.692Z,941.41
2018-06-16T13:11:47.757Z,941.39
2018-06-16T13:12:55.967Z,941.38
2018-06-16T13:14:03.927Z,941.38
2018-06-16T13:15:12.112Z,941.36
2018-06-16T13:16:20.068Z,941.35
2018-06-16T13:17:28.136Z,941.33
2018-06-16T13:18:36.332Z,941.28
2018-06-16T13:19:44.294Z,941.31
2018-06-16T13:20:52.398Z,941.27
2018-06-16T13:22:00.426Z,941.26
2018-06-16T13:23:08.549Z,941.24
2018-06-16T13:24:16.627Z,941.25
2018-06-16T13:25:24.648Z,941.29
2018-06-16T13:26:32.745Z,941.25
2018-06-16T13:27:41.158Z,941.29
2018-06-16T13:28:48.866Z,941.31
2018-06-16T13:29:57.028Z,941.35
2018-06-16T13:31:05.022Z,941.31
2018-06-16T13:32:13.085Z,941.35
2018-06-16T13:33:21.172Z,941.39
2018-06-16T13:34:29.254Z,941.36
2018-06-16T13:35:37.396Z,941.39
2018-06-16T13:36:45.377Z,941.41
2018-06-16T13:37:53.451Z,941.38
2018-06-16T13:39:01.998Z,941.39
2018-06-16T13:40:09.892Z,941.42
2018-06-16T13:41:18.232Z,941.38
2018-06-16T13:42:25.951Z,941.38
2018-06-16T13:43:34.223Z,941.34
2018-06-16T13:44:42.137Z,941.31
2018-06-16T13:45:50.168Z,941.32
2018-06-16T13:46:58.375Z,941.32
2018-06-16T13:48:06.311Z,941.33
2018-06-16T13:49:14.403Z,941.33
2018-06-16T13:50:22.464Z,941.29
2018-06-16T13:51:30.547Z,941.31
2018-06-16T13:52:38.917Z,941.30
2018-06-16T13:53:46.700Z,941.31
2018-06-16T13:54:54.754Z,941.31
2018-06-16T13:56:03.081Z,941.28
2018-06-16T13:57:11.016Z,941.31
2018-06-16T13:58:18.980Z,941.29
2018-06-16T13:59:27.149Z,941.26
2018-06-16T14:00:35.127Z,941.28
2018-06-16T14:01:43.403Z,941.26
2018-06-16T14:02:51.528Z,941.28
2018-06-16T14:03:59.557Z,941.31
2018-06-16T14:05:07.595Z,941.30
2018-06-16T14:06:15.693Z,941.28
2018-06-16T14:07:23.887Z,941.25
2018-06-16T14:08:31.845Z,941.28
2018-06-16T14:09:39.914Z,941.28
2018-06-16T14:10:48.074Z,941.29
2018-06-16T14:11:56.056Z,941.28
2018-06-16T14:13:04.247Z,941.28
2018-06-16T14:14:12.212Z,941.24
2018-06-16T14:15:20.400Z,941.25
2018-06-16T14:16:28.357Z,941.29
2018-06-16T14:17:36.440Z,941.28
2018-06-16T14:18:44.549Z,941.29
2018-06-16T14:19:52.583Z,941.27
2018-06-16T14:21:00.648Z,941.28
2018-06-16T14:22:08.927Z,941.29
2018-06-16T14:23:17.004Z,941.30
2018-06-16T14:24:25.199Z,941.34
2018-06-16T14:25:33.246Z,941.32
2018-06-16T14:26:41.226Z,941.36
2018-06-16T14:27:49.310Z,941.35
2018-06-16T14:28:57.345Z,941.35
2018-06-16T14:30:05.813Z,941.33